Terminal Aerodrome Forecast
Issued by NWS Sterling, VA

Current Version | Previous Version | Graphics & Text | Print | Product List | Glossary On
Versions: 1 2 3 4 5 6 7 8 9 10 11 12 13 14 15 16 17 18 19
000
FTUS41 KLWX 271730
TAFMRB
TAF
KMRB 271730Z 2718/2818 06004KT P6SM OVC035
     FM280600 00000KT 5SM BR BKN030
     FM280900 00000KT 5SM BR BKN015
     FM281000 00000KT 2SM BR BKN008
     FM281100 00000KT 2SM BR BKN008
     FM281300 VRB03KT P6SM BKN008
     FM281700 14005KT P6SM BKN025=

USA.gov is the U.S. government's official web portal to all federal, state and local government web resources and services.